»·PEaware :: SWA717 KBUF-KBOS

SWA717 :: KBUF-KBOS

FLIGHT INFORMATION

Flight Status: Arrived
Operator:
Southwest Airlines
More flights by this operator :: More flights under this callsign
Pilot: Ty S. (2873)
Aircraft: BOEING 737-300
(B733)
More flights by this aircraft type
Origin: KBUF Buffalo Niagara Intl
United States
Destination: KBOS Logan Intl
United States
More flights between these airports :: More routes between these airports
Route:
File this flight plan on PilotEdge
Remarks:
Altitude:
(Current/Filed)
0ft
Speed:
(Current/Filed)
0kts
Departed: 23-Apr-16 07:02 AM
Arrived: 23-Apr-16 08:07 AM
Distance/Time
Traveled:
342nm/1:05
Distance/Time
To Go:
Arrived

Flight Plot

Page will automatically refresh every two minutes.


Map Options




Map Legend


Flown Route
Filed Route
Departure Airport
Arrival Airport
Navaid (VOR, NDB)
Fix

Horizontal Profiles

Position Reports

Time Latitude Longitude Heading Altitude Ground
Speed
23-Apr-16 06:44 42.936699 -78.730463 133 731ft 0kts
23-Apr-16 06:45 42.936884 -78.731085 53 731ft 0kts
23-Apr-16 06:46 42.936757 -78.731236 32 731ft 0kts
23-Apr-16 06:47 42.936757 -78.731236 32 731ft 0kts
23-Apr-16 06:48 42.938425 -78.730116 42 731ft 11kts
23-Apr-16 06:49 42.940252 -78.727723 43 731ft 11kts
23-Apr-16 06:50 42.942736 -78.724440 43 731ft 13kts
23-Apr-16 06:51 42.945613 -78.720681 43 731ft 14kts
23-Apr-16 06:52 42.947969 -78.718284 324 731ft 7kts
23-Apr-16 06:53 42.937460 -78.733289 225 735ft 157kts
23-Apr-16 06:54 42.902457 -78.782202 235 2768ft 186kts
23-Apr-16 06:55 42.862806 -78.835866 223 3788ft 253kts
23-Apr-16 06:56 42.800829 -78.821841 107 5934ft 272kts
23-Apr-16 06:57 42.800432 -78.724826 66 8118ft 280kts
23-Apr-16 06:58 42.815325 -78.618481 81 10567ft 302kts
23-Apr-16 06:59 42.819855 -78.490829 85 12075ft 358kts
23-Apr-16 07:00 42.822388 -78.352375 85 14630ft 372kts
23-Apr-16 07:01 42.826207 -78.209709 86 16984ft 387kts
23-Apr-16 07:02 42.828414 -78.061810 85 19236ft 396kts
23-Apr-16 07:03 42.830114 -77.935009 87 20939ft 406kts
23-Apr-16 07:04 42.831719 -77.779548 86 22777ft 418kts
23-Apr-16 07:05 42.832486 -77.619829 89 24506ft 428kts
23-Apr-16 07:06 42.830569 -77.455933 88 26062ft 438kts
23-Apr-16 07:07 42.829850 -77.289883 87 27532ft 445kts
23-Apr-16 07:08 42.828372 -77.120057 90 28847ft 452kts
23-Apr-16 07:09 42.826269 -76.952557 89 29012ft 420kts
23-Apr-16 07:10 42.824211 -76.790247 89 29245ft 444kts
23-Apr-16 07:11 42.821778 -76.619931 89 29151ft 451kts
23-Apr-16 07:12 42.819874 -76.449568 90 29137ft 451kts
23-Apr-16 07:13 42.816819 -76.280071 89 29106ft 449kts
23-Apr-16 07:14 42.813986 -76.109930 92 29133ft 451kts
23-Apr-16 07:15 42.810236 -75.938062 91 29152ft 456kts
23-Apr-16 07:16 42.806353 -75.764942 91 29017ft 451kts
23-Apr-16 07:17 42.802390 -75.592474 91 29191ft 460kts
23-Apr-16 07:18 42.798239 -75.420203 92 29085ft 451kts
23-Apr-16 07:19 42.794962 -75.248548 91 29143ft 458kts
23-Apr-16 07:20 42.789501 -75.076233 93 29113ft 456kts
23-Apr-16 07:21 42.784354 -74.900605 93 28981ft 466kts
23-Apr-16 07:22 42.778890 -74.724905 94 29242ft 473kts
23-Apr-16 07:23 42.773365 -74.546487 95 28840ft 445kts
23-Apr-16 07:24 42.767553 -74.377749 95 29167ft 462kts
23-Apr-16 07:25 42.763107 -74.205209 96 29000ft 452kts
23-Apr-16 07:26 42.755750 -74.033715 96 29019ft 460kts
23-Apr-16 07:27 42.749085 -73.862896 96 29026ft 454kts
23-Apr-16 07:28 42.745166 -73.689612 94 28872ft 452kts
23-Apr-16 07:29 42.742846 -73.519939 93 29046ft 454kts
23-Apr-16 07:30 42.741779 -73.349882 95 28995ft 451kts
23-Apr-16 07:31 42.741161 -73.201168 94 29014ft 456kts
23-Apr-16 07:32 42.731008 -73.032991 104 29024ft 447kts
23-Apr-16 07:33 42.710993 -72.866070 103 28900ft 448kts
23-Apr-16 07:34 42.691343 -72.698701 103 29101ft 452kts
23-Apr-16 07:35 42.672283 -72.529146 103 28364ft 453kts
23-Apr-16 07:36 42.650780 -72.358671 103 25396ft 460kts
23-Apr-16 07:37 42.631490 -72.192431 103 22775ft 448kts
23-Apr-16 07:38 42.615337 -72.056953 101 20836ft 424kts
23-Apr-16 07:39 42.594168 -71.902465 102 18629ft 405kts
23-Apr-16 07:40 42.574530 -71.755431 104 16474ft 392kts
23-Apr-16 07:41 42.552368 -71.617797 103 14416ft 358kts
23-Apr-16 07:42 42.519669 -71.495275 114 12686ft 344kts
23-Apr-16 07:43 42.484622 -71.383635 113 11278ft 309kts
23-Apr-16 07:44 42.471655 -71.259411 97 9795ft 306kts
23-Apr-16 07:45 42.460430 -71.148468 96 8348ft 296kts
23-Apr-16 07:46 42.449152 -71.040151 96 6930ft 285kts
23-Apr-16 07:47 42.443411 -70.942936 76 6941ft 249kts
23-Apr-16 07:48 42.456732 -70.851278 76 5664ft 247kts
23-Apr-16 07:49 42.469032 -70.760965 80 4467ft 241kts
23-Apr-16 07:50 42.449469 -70.690311 186 3223ft 225kts
23-Apr-16 07:51 42.405788 -70.730218 247 3037ft 185kts
23-Apr-16 07:52 42.392966 -70.797840 261 2954ft 181kts
23-Apr-16 07:53 42.389055 -70.823289 260 2606ft 186kts
23-Apr-16 07:54 42.388305 -70.827748 259 2478ft 186kts
23-Apr-16 07:55 42.377914 -70.887215 260 1545ft 145kts
23-Apr-16 07:56 42.369432 -70.935441 259 843ft 142kts
23-Apr-16 07:57 42.361222 -70.981975 260 149ft 141kts
23-Apr-16 07:58 42.356522 -71.011239 291 27ft 18kts
23-Apr-16 07:59 42.357848 -71.014721 288 27ft 13kts

Navigation Log

Ident Type
Flight plan parsing failed, navigation log unavailable